US Aviators Van Nuys Flight School Los Angeles Pilot school at Van Nuys Simulator Flight Training Profesional Pilot Instruction Learn to Fly

U.S. Aviators

Learn to fly here! (818) 779-2105

Weather at Van Nuys Airport

Observed:Sun Jun 26, 13:51 PDT
Age:3 min ago
Wind:SE at 4 mph
Visibility:10 miles
Clouds:Clear skies
Temperature:99°F (37°C)
Dewpoint:55°F (13°C)
Humidity:24%
Barometer:1012 hPa (29.87 in Hg)

METAR

KVNY 262051Z 14007KT 10SM CLR 37/13 A2987 RMK AO2 SLP103 T03670133 58006